sensor_id;sensor_type;location;lat;lon;timestamp;P1;durP1;ratioP1;P2;durP2;ratioP2
51326;SDS011;37412;52.836;6.362;2023-04-25T00:18:54;11.13;;;2.70;;
51326;SDS011;37412;52.836;6.362;2023-04-25T00:21:41;9.43;;;3.20;;
51326;SDS011;37412;52.836;6.362;2023-04-25T00:24:27;10.15;;;3.00;;
51326;SDS011;37412;52.836;6.362;2023-04-25T00:27:13;13.68;;;3.05;;
51326;SDS011;37412;52.836;6.362;2023-04-25T00:29:59;11.10;;;3.00;;
51326;SDS011;37412;52.836;6.362;2023-04-25T00:32:45;12.10;;;2.90;;
51326;SDS011;37412;52.836;6.362;2023-04-25T00:35:31;11.23;;;2.72;;
51326;SDS011;37412;52.836;6.362;2023-04-25T00:38:17;10.75;;;3.20;;
51326;SDS011;37412;52.836;6.362;2023-04-25T00:41:04;10.60;;;3.08;;
51326;SDS011;37412;52.836;6.362;2023-04-25T00:43:54;9.05;;;2.88;;
51326;SDS011;37412;52.836;6.362;2023-04-25T00:46:41;8.05;;;2.53;;
51326;SDS011;37412;52.836;6.362;2023-04-25T00:49:27;7.18;;;2.55;;
51326;SDS011;37412;52.836;6.362;2023-04-25T00:52:13;9.73;;;3.33;;
51326;SDS011;37412;52.836;6.362;2023-04-25T00:54:59;10.18;;;2.50;;
51326;SDS011;37412;52.836;6.362;2023-04-25T00:57:46;11.45;;;3.17;;
51326;SDS011;37412;52.836;6.362;2023-04-25T01:00:32;10.80;;;3.35;;
51326;SDS011;37412;52.836;6.362;2023-04-25T01:03:18;13.75;;;3.08;;
51326;SDS011;37412;52.836;6.362;2023-04-25T01:06:08;7.47;;;2.50;;
51326;SDS011;37412;52.836;6.362;2023-04-25T01:08:55;5.43;;;2.55;;
51326;SDS011;37412;52.836;6.362;2023-04-25T01:11:41;8.35;;;2.58;;
51326;SDS011;37412;52.836;6.362;2023-04-25T01:14:27;9.55;;;2.47;;
51326;SDS011;37412;52.836;6.362;2023-04-25T01:17:13;8.70;;;2.50;;
51326;SDS011;37412;52.836;6.362;2023-04-25T01:20:02;6.82;;;2.50;;
51326;SDS011;37412;52.836;6.362;2023-04-25T01:22:52;8.85;;;2.70;;
51326;SDS011;37412;52.836;6.362;2023-04-25T01:25:40;10.85;;;2.67;;
51326;SDS011;37412;52.836;6.362;2023-04-25T01:28:26;9.63;;;2.92;;
51326;SDS011;37412;52.836;6.362;2023-04-25T01:31:13;10.68;;;2.97;;
51326;SDS011;37412;52.836;6.362;2023-04-25T01:34:00;12.65;;;3.40;;
51326;SDS011;37412;52.836;6.362;2023-04-25T01:36:49;14.88;;;2.88;;
51326;SDS011;37412;52.836;6.362;2023-04-25T01:39:35;14.10;;;2.85;;
51326;SDS011;37412;52.836;6.362;2023-04-25T01:42:21;14.20;;;3.30;;
51326;SDS011;37412;52.836;6.362;2023-04-25T01:45:07;9.38;;;2.65;;
51326;SDS011;37412;52.836;6.362;2023-04-25T01:47:56;10.32;;;2.60;;
51326;SDS011;37412;52.836;6.362;2023-04-25T01:50:44;12.45;;;3.33;;
51326;SDS011;37412;52.836;6.362;2023-04-25T01:53:30;11.77;;;3.10;;
51326;SDS011;37412;52.836;6.362;2023-04-25T01:56:17;13.13;;;3.10;;
51326;SDS011;37412;52.836;6.362;2023-04-25T01:59:04;12.55;;;3.05;;
51326;SDS011;37412;52.836;6.362;2023-04-25T02:01:50;12.80;;;3.10;;
51326;SDS011;37412;52.836;6.362;2023-04-25T02:04:36;13.48;;;3.15;;
51326;SDS011;37412;52.836;6.362;2023-04-25T02:07:22;10.05;;;2.92;;
51326;SDS011;37412;52.836;6.362;2023-04-25T07:48:06;3.95;;;1.50;;
51326;SDS011;37412;52.836;6.362;2023-04-25T07:50:55;4.70;;;1.27;;
51326;SDS011;37412;52.836;6.362;2023-04-25T07:53:41;5.07;;;0.80;;
51326;SDS011;37412;52.836;6.362;2023-04-25T07:56:27;5.13;;;1.13;;
51326;SDS011;37412;52.836;6.362;2023-04-25T07:59:13;3.40;;;1.10;;
51326;SDS011;37412;52.836;6.362;2023-04-25T08:01:59;10.93;;;2.30;;
51326;SDS011;37412;52.836;6.362;2023-04-25T08:04:46;13.35;;;4.00;;
51326;SDS011;37412;52.836;6.362;2023-04-25T08:07:32;8.35;;;2.70;;
51326;SDS011;37412;52.836;6.362;2023-04-25T08:10:18;6.10;;;1.30;;
51326;SDS011;37412;52.836;6.362;2023-04-25T08:35:11;2.97;;;0.85;;
51326;SDS011;37412;52.836;6.362;2023-04-25T08:37:57;3.40;;;0.93;;
51326;SDS011;37412;52.836;6.362;2023-04-25T08:40:43;5.78;;;1.13;;
51326;SDS011;37412;52.836;6.362;2023-04-25T08:43:29;5.72;;;0.95;;
51326;SDS011;37412;52.836;6.362;2023-04-25T08:46:18;3.78;;;1.10;;
51326;SDS011;37412;52.836;6.362;2023-04-25T08:49:04;2.85;;;0.75;;
51326;SDS011;37412;52.836;6.362;2023-04-25T08:51:50;7.85;;;1.13;;
51326;SDS011;37412;52.836;6.362;2023-04-25T08:54:38;4.88;;;1.00;;
51326;SDS011;37412;52.836;6.362;2023-04-25T08:57:29;4.22;;;1.02;;
51326;SDS011;37412;52.836;6.362;2023-04-25T09:00:17;7.93;;;1.30;;
51326;SDS011;37412;52.836;6.362;2023-04-25T09:03:05;6.43;;;1.15;;
51326;SDS011;37412;52.836;6.362;2023-04-25T09:11:25;5.93;;;1.20;;
51326;SDS011;37412;52.836;6.362;2023-04-25T09:14:15;3.47;;;1.00;;
51326;SDS011;37412;52.836;6.362;2023-04-25T09:17:03;5.07;;;1.00;;
51326;SDS011;37412;52.836;6.362;2023-04-25T09:19:53;3.97;;;1.08;;
51326;SDS011;37412;52.836;6.362;2023-04-25T10:04:26;11.98;;;1.17;;
51326;SDS011;37412;52.836;6.362;2023-04-25T10:07:16;6.05;;;1.50;;
51326;SDS011;37412;52.836;6.362;2023-04-25T10:10:03;5.70;;;1.63;;
51326;SDS011;37412;52.836;6.362;2023-04-25T10:12:51;6.00;;;1.35;;
51326;SDS011;37412;52.836;6.362;2023-04-25T10:15:37;6.97;;;1.48;;
51326;SDS011;37412;52.836;6.362;2023-04-25T10:18:24;6.10;;;1.50;;
51326;SDS011;37412;52.836;6.362;2023-04-25T10:21:12;6.85;;;1.17;;
51326;SDS011;37412;52.836;6.362;2023-04-25T10:23:59;5.68;;;1.30;;
51326;SDS011;37412;52.836;6.362;2023-04-25T10:26:46;6.45;;;1.33;;
51326;SDS011;37412;52.836;6.362;2023-04-25T10:29:36;5.43;;;1.50;;
51326;SDS011;37412;52.836;6.362;2023-04-25T10:32:22;5.15;;;1.40;;
51326;SDS011;37412;52.836;6.362;2023-04-25T10:35:19;5.90;;;1.63;;
51326;SDS011;37412;52.836;6.362;2023-04-25T10:38:10;7.53;;;1.70;;
51326;SDS011;37412;52.836;6.362;2023-04-25T10:41:07;6.82;;;1.60;;
51326;SDS011;37412;52.836;6.362;2023-04-25T10:44:00;7.00;;;1.80;;
51326;SDS011;37412;52.836;6.362;2023-04-25T10:46:49;8.48;;;2.00;;
51326;SDS011;37412;52.836;6.362;2023-04-25T10:49:38;7.90;;;1.57;;
51326;SDS011;37412;52.836;6.362;2023-04-25T10:52:27;7.95;;;1.60;;
51326;SDS011;37412;52.836;6.362;2023-04-25T10:55:15;6.32;;;1.58;;
51326;SDS011;37412;52.836;6.362;2023-04-25T10:58:00;4.65;;;1.40;;
51326;SDS011;37412;52.836;6.362;2023-04-25T11:00:47;4.13;;;1.20;;
51326;SDS011;37412;52.836;6.362;2023-04-25T11:03:38;6.20;;;1.50;;
51326;SDS011;37412;52.836;6.362;2023-04-25T11:06:34;6.60;;;1.30;;
51326;SDS011;37412;52.836;6.362;2023-04-25T11:09:28;5.30;;;1.50;;
51326;SDS011;37412;52.836;6.362;2023-04-25T11:12:14;5.32;;;1.30;;
51326;SDS011;37412;52.836;6.362;2023-04-25T11:15:05;5.43;;;1.45;;
51326;SDS011;37412;52.836;6.362;2023-04-25T11:17:52;5.60;;;1.30;;
51326;SDS011;37412;52.836;6.362;2023-04-25T11:20:39;5.20;;;1.20;;
51326;SDS011;37412;52.836;6.362;2023-04-25T11:23:29;4.50;;;1.20;;
51326;SDS011;37412;52.836;6.362;2023-04-25T11:26:15;4.75;;;1.27;;
51326;SDS011;37412;52.836;6.362;2023-04-25T11:29:01;4.72;;;1.15;;
51326;SDS011;37412;52.836;6.362;2023-04-25T11:31:48;6.60;;;1.20;;
51326;SDS011;37412;52.836;6.362;2023-04-25T11:34:34;6.10;;;1.20;;
51326;SDS011;37412;52.836;6.362;2023-04-25T11:37:20;5.18;;;1.20;;
51326;SDS011;37412;52.836;6.362;2023-04-25T11:40:07;4.97;;;1.30;;
51326;SDS011;37412;52.836;6.362;2023-04-25T11:42:54;6.57;;;1.38;;
51326;SDS011;37412;52.836;6.362;2023-04-25T11:45:40;4.45;;;1.27;;
51326;SDS011;37412;52.836;6.362;2023-04-25T11:48:27;3.53;;;1.05;;
51326;SDS011;37412;52.836;6.362;2023-04-25T11:51:13;4.20;;;1.10;;
51326;SDS011;37412;52.836;6.362;2023-04-25T11:54:00;4.88;;;1.20;;
51326;SDS011;37412;52.836;6.362;2023-04-25T11:56:46;5.07;;;1.20;;
51326;SDS011;37412;52.836;6.362;2023-04-25T11:59:32;3.40;;;1.15;;
51326;SDS011;37412;52.836;6.362;2023-04-25T12:02:24;4.60;;;1.45;;
51326;SDS011;37412;52.836;6.362;2023-04-25T12:05:11;5.05;;;1.23;;
51326;SDS011;37412;52.836;6.362;2023-04-25T12:08:15;4.32;;;1.30;;
51326;SDS011;37412;52.836;6.362;2023-04-25T12:11:01;4.43;;;1.10;;
51326;SDS011;37412;52.836;6.362;2023-04-25T12:13:51;3.77;;;1.13;;
51326;SDS011;37412;52.836;6.362;2023-04-25T12:16:42;4.75;;;1.08;;
51326;SDS011;37412;52.836;6.362;2023-04-25T12:19:33;5.80;;;1.20;;
51326;SDS011;37412;52.836;6.362;2023-04-25T12:22:21;4.97;;;1.00;;
51326;SDS011;37412;52.836;6.362;2023-04-25T12:25:08;4.18;;;1.08;;
51326;SDS011;37412;52.836;6.362;2023-04-25T12:27:54;5.32;;;1.20;;
51326;SDS011;37412;52.836;6.362;2023-04-25T12:33:51;3.80;;;1.10;;
51326;SDS011;37412;52.836;6.362;2023-04-25T12:36:37;3.92;;;1.20;;
51326;SDS011;37412;52.836;6.362;2023-04-25T12:39:24;5.63;;;1.10;;
51326;SDS011;37412;52.836;6.362;2023-04-25T12:42:11;4.32;;;1.30;;
51326;SDS011;37412;52.836;6.362;2023-04-25T12:44:57;6.30;;;1.33;;
51326;SDS011;37412;52.836;6.362;2023-04-25T12:47:43;5.03;;;1.52;;
51326;SDS011;37412;52.836;6.362;2023-04-25T12:50:29;5.73;;;1.20;;
51326;SDS011;37412;52.836;6.362;2023-04-25T12:53:18;5.43;;;1.25;;
51326;SDS011;37412;52.836;6.362;2023-04-25T12:56:06;5.30;;;1.30;;
51326;SDS011;37412;52.836;6.362;2023-04-25T12:58:53;4.60;;;1.40;;
51326;SDS011;37412;52.836;6.362;2023-04-25T13:01:39;6.72;;;1.55;;
51326;SDS011;37412;52.836;6.362;2023-04-25T13:04:25;4.38;;;1.30;;
51326;SDS011;37412;52.836;6.362;2023-04-25T13:07:11;7.13;;;1.45;;
51326;SDS011;37412;52.836;6.362;2023-04-25T13:09:57;5.10;;;0.90;;
51326;SDS011;37412;52.836;6.362;2023-04-25T13:12:43;5.47;;;1.38;;
51326;SDS011;37412;52.836;6.362;2023-04-25T13:15:29;5.50;;;1.23;;
51326;SDS011;37412;52.836;6.362;2023-04-25T13:18:15;4.82;;;1.15;;
51326;SDS011;37412;52.836;6.362;2023-04-25T13:21:01;5.18;;;1.15;;
51326;SDS011;37412;52.836;6.362;2023-04-25T13:23:47;4.63;;;1.00;;
51326;SDS011;37412;52.836;6.362;2023-04-25T13:26:33;7.85;;;1.80;;
51326;SDS011;37412;52.836;6.362;2023-04-25T13:29:19;5.65;;;0.98;;
51326;SDS011;37412;52.836;6.362;2023-04-25T13:32:05;5.93;;;1.20;;
51326;SDS011;37412;52.836;6.362;2023-04-25T13:34:51;4.53;;;1.00;;
51326;SDS011;37412;52.836;6.362;2023-04-25T13:37:38;3.53;;;1.15;;
51326;SDS011;37412;52.836;6.362;2023-04-25T13:40:25;4.43;;;1.10;;
51326;SDS011;37412;52.836;6.362;2023-04-25T19:13:03;7.28;;;1.10;;
51326;SDS011;37412;52.836;6.362;2023-04-25T21:06:55;7.80;;;1.73;;
51326;SDS011;37412;52.836;6.362;2023-04-25T21:09:41;3.92;;;1.20;;
51326;SDS011;37412;52.836;6.362;2023-04-25T21:12:29;6.70;;;1.92;;
51326;SDS011;37412;52.836;6.362;2023-04-25T21:15:15;3.97;;;1.40;;
51326;SDS011;37412;52.836;6.362;2023-04-25T21:18:04;5.90;;;1.83;;
51326;SDS011;37412;52.836;6.362;2023-04-25T21:20:51;5.55;;;1.90;;
51326;SDS011;37412;52.836;6.362;2023-04-25T21:23:37;4.82;;;2.33;;
51326;SDS011;37412;52.836;6.362;2023-04-25T21:26:23;6.28;;;2.47;;
51326;SDS011;37412;52.836;6.362;2023-04-25T21:29:10;4.88;;;2.20;;
51326;SDS011;37412;52.836;6.362;2023-04-25T21:31:59;7.80;;;3.70;;
51326;SDS011;37412;52.836;6.362;2023-04-25T21:34:45;16.67;;;6.75;;
51326;SDS011;37412;52.836;6.362;2023-04-25T21:37:31;16.10;;;6.50;;
51326;SDS011;37412;52.836;6.362;2023-04-25T21:40:17;10.65;;;4.57;;
51326;SDS011;37412;52.836;6.362;2023-04-25T21:43:03;9.52;;;3.80;;
51326;SDS011;37412;52.836;6.362;2023-04-25T21:45:50;7.75;;;2.85;;
51326;SDS011;37412;52.836;6.362;2023-04-25T21:48:36;8.68;;;3.47;;
51326;SDS011;37412;52.836;6.362;2023-04-25T21:51:23;9.00;;;2.72;;
51326;SDS011;37412;52.836;6.362;2023-04-25T21:54:09;7.53;;;2.70;;
51326;SDS011;37412;52.836;6.362;2023-04-25T21:56:55;6.93;;;2.70;;
51326;SDS011;37412;52.836;6.362;2023-04-25T21:59:41;7.35;;;2.90;;
51326;SDS011;37412;52.836;6.362;2023-04-25T22:02:27;5.60;;;2.83;;
51326;SDS011;37412;52.836;6.362;2023-04-25T22:05:15;7.45;;;3.03;;
51326;SDS011;37412;52.836;6.362;2023-04-25T22:08:02;9.25;;;3.08;;
51326;SDS011;37412;52.836;6.362;2023-04-25T22:10:48;7.47;;;2.53;;
51326;SDS011;37412;52.836;6.362;2023-04-25T22:13:34;7.70;;;3.22;;
51326;SDS011;37412;52.836;6.362;2023-04-25T22:16:20;6.90;;;3.00;;
51326;SDS011;37412;52.836;6.362;2023-04-25T22:19:06;7.20;;;2.80;;
51326;SDS011;37412;52.836;6.362;2023-04-25T22:21:53;8.07;;;3.30;;
51326;SDS011;37412;52.836;6.362;2023-04-25T22:24:39;8.45;;;2.88;;
51326;SDS011;37412;52.836;6.362;2023-04-25T22:27:26;6.60;;;2.90;;
51326;SDS011;37412;52.836;6.362;2023-04-25T22:30:12;7.40;;;2.88;;
51326;SDS011;37412;52.836;6.362;2023-04-25T22:32:58;8.93;;;2.83;;
51326;SDS011;37412;52.836;6.362;2023-04-25T22:35:44;7.75;;;2.58;;
51326;SDS011;37412;52.836;6.362;2023-04-25T22:38:30;8.55;;;3.03;;
51326;SDS011;37412;52.836;6.362;2023-04-25T22:41:16;6.50;;;2.60;;
51326;SDS011;37412;52.836;6.362;2023-04-25T22:44:02;8.32;;;3.45;;
51326;SDS011;37412;52.836;6.362;2023-04-25T22:46:48;7.72;;;2.83;;
51326;SDS011;37412;52.836;6.362;2023-04-25T22:49:34;8.20;;;2.80;;
51326;SDS011;37412;52.836;6.362;2023-04-25T22:52:20;7.55;;;2.90;;
51326;SDS011;37412;52.836;6.362;2023-04-25T22:55:06;6.07;;;2.90;;
51326;SDS011;37412;52.836;6.362;2023-04-25T22:57:52;7.43;;;2.92;;
51326;SDS011;37412;52.836;6.362;2023-04-25T23:00:39;5.43;;;2.97;;
51326;SDS011;37412;52.836;6.362;2023-04-25T23:03:25;7.85;;;3.03;;
51326;SDS011;37412;52.836;6.362;2023-04-25T23:06:11;6.40;;;2.80;;
51326;SDS011;37412;52.836;6.362;2023-04-25T23:08:57;6.78;;;3.20;;
51326;SDS011;37412;52.836;6.362;2023-04-25T23:11:44;8.52;;;3.05;;
51326;SDS011;37412;52.836;6.362;2023-04-25T23:14:30;7.07;;;3.17;;
51326;SDS011;37412;52.836;6.362;2023-04-25T23:17:17;7.73;;;3.53;;
51326;SDS011;37412;52.836;6.362;2023-04-25T23:20:03;7.95;;;3.30;;
51326;SDS011;37412;52.836;6.362;2023-04-25T23:22:51;7.67;;;3.10;;
51326;SDS011;37412;52.836;6.362;2023-04-25T23:25:37;7.53;;;3.08;;
51326;SDS011;37412;52.836;6.362;2023-04-25T23:28:24;8.18;;;3.15;;
51326;SDS011;37412;52.836;6.362;2023-04-25T23:31:10;6.35;;;2.83;;
51326;SDS011;37412;52.836;6.362;2023-04-25T23:33:56;5.82;;;3.05;;
51326;SDS011;37412;52.836;6.362;2023-04-25T23:36:42;7.32;;;3.10;;
51326;SDS011;37412;52.836;6.362;2023-04-25T23:39:28;7.70;;;3.25;;
51326;SDS011;37412;52.836;6.362;2023-04-25T23:42:15;5.95;;;2.80;;
51326;SDS011;37412;52.836;6.362;2023-04-25T23:45:02;6.07;;;2.93;;
51326;SDS011;37412;52.836;6.362;2023-04-25T23:47:49;8.82;;;2.72;;
51326;SDS011;37412;52.836;6.362;2023-04-25T23:50:35;7.63;;;2.77;;
51326;SDS011;37412;52.836;6.362;2023-04-25T23:53:21;8.02;;;2.95;;
51326;SDS011;37412;52.836;6.362;2023-04-25T23:56:07;7.07;;;3.13;;
51326;SDS011;37412;52.836;6.362;2023-04-25T23:58:54;8.35;;;2.67;;
